createdAt,value
2023-03-08T00:01:12.505Z,13.30
2023-03-08T00:03:39.026Z,10.57
2023-03-08T00:06:06.645Z,12.73
2023-03-08T00:08:33.048Z,9.37
2023-03-08T00:10:59.583Z,11.13
2023-03-08T00:13:26.205Z,11.10
2023-03-08T00:15:53.067Z,13.67
2023-03-08T00:18:19.402Z,9.77
2023-03-08T00:20:45.819Z,12.63
2023-03-08T00:23:12.182Z,11.93
2023-03-08T00:25:38.553Z,14.07
2023-03-08T00:28:05.037Z,13.00
2023-03-08T00:30:31.447Z,13.60
2023-03-08T00:32:57.773Z,14.10
2023-03-08T00:35:24.239Z,12.30
2023-03-08T00:37:50.624Z,11.30
2023-03-08T00:40:17.229Z,12.67
2023-03-08T00:42:43.861Z,10.83
2023-03-08T00:45:11.035Z,15.63
2023-03-08T00:47:38.118Z,12.07
2023-03-08T00:50:04.912Z,15.70
2023-03-08T00:52:31.228Z,11.27
2023-03-08T00:54:57.553Z,11.70
2023-03-08T00:57:23.968Z,12.37
2023-03-08T00:59:50.319Z,10.50
2023-03-08T01:02:16.756Z,10.57
2023-03-08T01:04:43.130Z,12.50
2023-03-08T01:07:09.618Z,13.23
2023-03-08T01:09:36.016Z,13.13
2023-03-08T01:12:02.358Z,12.40
2023-03-08T01:14:30.022Z,11.80
2023-03-08T01:16:56.460Z,12.97
2023-03-08T01:19:22.897Z,13.90
2023-03-08T01:21:49.328Z,16.93
2023-03-08T01:24:15.694Z,12.97
2023-03-08T01:26:42.103Z,13.73
2023-03-08T01:29:08.413Z,11.97
2023-03-08T01:31:34.944Z,12.43
2023-03-08T01:34:01.497Z,15.37
2023-03-08T01:36:28.351Z,11.33
2023-03-08T01:38:54.948Z,11.40
2023-03-08T01:41:30.387Z,10.40
2023-03-08T01:43:57.677Z,11.63
2023-03-08T01:46:36.630Z,13.27
2023-03-08T01:49:05.956Z,13.50
2023-03-08T01:51:44.349Z,10.97
2023-03-08T01:54:15.620Z,14.60
2023-03-08T01:56:44.839Z,11.00
2023-03-08T01:59:12.225Z,12.27
2023-03-08T02:01:39.235Z,12.20
2023-03-08T02:04:06.628Z,11.80
2023-03-08T02:06:33.644Z,13.60
2023-03-08T02:09:04.323Z,12.60
2023-03-08T02:11:32.546Z,14.43
2023-03-08T02:13:59.221Z,11.93
2023-03-08T02:16:25.709Z,13.57
2023-03-08T02:18:55.512Z,12.33
2023-03-08T02:21:22.770Z,14.30
2023-03-08T02:23:49.255Z,12.00
2023-03-08T02:26:16.651Z,13.03
2023-03-08T02:28:43.693Z,11.43
2023-03-08T02:31:11.985Z,13.03
2023-03-08T02:33:38.632Z,12.50
2023-03-08T02:36:08.246Z,10.17
2023-03-08T02:38:35.313Z,11.47
2023-03-08T02:41:01.668Z,11.23
2023-03-08T02:43:28.677Z,11.60
2023-03-08T02:45:55.024Z,10.50
2023-03-08T02:48:21.525Z,10.57
2023-03-08T02:50:47.921Z,12.70
2023-03-08T02:53:14.295Z,11.63
2023-03-08T02:55:40.637Z,11.23
2023-03-08T02:58:09.634Z,14.53
2023-03-08T03:00:36.946Z,10.97
2023-03-08T03:03:03.424Z,11.97
2023-03-08T03:05:29.864Z,12.60
2023-03-08T03:07:58.467Z,14.00
2023-03-08T03:10:25.213Z,12.90
2023-03-08T03:12:51.623Z,10.43
2023-03-08T03:15:18.103Z,10.43
2023-03-08T03:17:44.565Z,11.90
2023-03-08T03:20:11.568Z,11.73
2023-03-08T03:22:38.095Z,11.33
2023-03-08T03:25:05.605Z,13.20
2023-03-08T03:27:32.015Z,13.27
2023-03-08T03:29:58.641Z,13.00
2023-03-08T03:32:25.108Z,10.77
2023-03-08T03:34:51.744Z,13.50
2023-03-08T03:37:18.198Z,13.80
2023-03-08T03:39:44.852Z,12.77
2023-03-08T03:42:11.457Z,13.73
2023-03-08T03:44:38.102Z,15.00
2023-03-08T03:47:05.880Z,12.20
2023-03-08T03:49:32.364Z,15.83
2023-03-08T03:51:58.955Z,14.10
2023-03-08T03:54:25.361Z,12.97
2023-03-08T03:56:51.834Z,15.53
2023-03-08T03:59:18.215Z,12.30
2023-03-08T04:01:44.635Z,12.83
2023-03-08T04:04:11.372Z,13.27
2023-03-08T04:06:38.921Z,13.03
2023-03-08T04:09:08.251Z,13.17
2023-03-08T04:11:37.383Z,14.03
2023-03-08T04:14:04.771Z,13.00
2023-03-08T04:16:34.022Z,12.20
2023-03-08T04:19:04.542Z,12.10
2023-03-08T04:21:31.426Z,14.03
2023-03-08T04:24:00.500Z,12.83
2023-03-08T04:26:27.244Z,15.53
2023-03-08T04:28:53.702Z,13.03
2023-03-08T04:31:25.708Z,14.63
2023-03-08T04:33:53.059Z,14.37
2023-03-08T04:36:20.282Z,15.70
2023-03-08T04:38:47.594Z,11.93
2023-03-08T04:41:15.624Z,12.23
2023-03-08T04:43:50.782Z,15.80
2023-03-08T04:46:19.428Z,13.63
2023-03-08T04:48:46.173Z,12.43
2023-03-08T04:51:14.187Z,14.93
2023-03-08T04:53:41.780Z,10.87
2023-03-08T04:56:09.172Z,10.93
2023-03-08T04:58:37.303Z,12.50
2023-03-08T05:01:15.675Z,13.33
2023-03-08T05:03:42.742Z,12.93
2023-03-08T05:06:10.584Z,10.97
2023-03-08T05:08:37.089Z,12.50
2023-03-08T05:11:04.671Z,11.87
2023-03-08T05:13:34.000Z,12.03
2023-03-08T05:16:00.564Z,13.60
2023-03-08T05:18:27.018Z,10.77
2023-03-08T05:20:55.466Z,10.00
2023-03-08T05:23:22.445Z,10.83
2023-03-08T05:25:52.159Z,12.83
2023-03-08T05:28:18.516Z,10.37
2023-03-08T05:30:44.878Z,12.20
2023-03-08T05:33:11.351Z,9.73
2023-03-08T05:35:37.823Z,12.50
2023-03-08T05:38:04.259Z,9.47
2023-03-08T05:40:30.898Z,10.47
2023-03-08T05:42:57.219Z,11.80
2023-03-08T05:45:23.677Z,8.60
2023-03-08T05:47:50.046Z,10.73
2023-03-08T05:50:16.730Z,10.07
2023-03-08T05:52:43.131Z,12.10
2023-03-08T05:55:09.798Z,10.43
2023-03-08T05:57:36.646Z,10.77
2023-03-08T06:00:04.715Z,10.97
2023-03-08T06:02:31.113Z,10.17
2023-03-08T06:04:57.497Z,9.03
2023-03-08T06:07:24.004Z,12.03
2023-03-08T06:09:51.779Z,10.73
2023-03-08T06:12:18.229Z,9.00
2023-03-08T06:14:44.729Z,9.90
2023-03-08T06:17:11.075Z,8.73
2023-03-08T06:19:37.388Z,11.00
2023-03-08T06:22:03.868Z,10.03
2023-03-08T06:24:30.821Z,10.97
2023-03-08T06:26:57.244Z,12.17
2023-03-08T06:29:23.697Z,11.30
2023-03-08T06:31:50.069Z,9.00
2023-03-08T06:34:16.430Z,10.37
2023-03-08T06:36:43.168Z,9.07
2023-03-08T06:39:09.930Z,10.27
2023-03-08T06:41:36.371Z,10.27
2023-03-08T06:44:02.996Z,10.10
2023-03-08T06:46:29.384Z,7.57
2023-03-08T06:48:55.953Z,7.73
2023-03-08T06:51:22.417Z,8.90
2023-03-08T06:53:48.794Z,7.03
2023-03-08T06:56:16.711Z,6.93
2023-03-08T06:58:43.303Z,7.17
2023-03-08T07:01:10.896Z,6.83
2023-03-08T07:03:37.709Z,6.43
2023-03-08T07:06:09.901Z,5.43
2023-03-08T07:08:38.138Z,6.23
2023-03-08T07:11:04.768Z,5.50
2023-03-08T07:13:31.307Z,6.40
2023-03-08T07:15:57.798Z,5.00
2023-03-08T07:18:24.787Z,6.07
2023-03-08T07:20:57.498Z,6.17
2023-03-08T07:23:23.999Z,5.50
2023-03-08T07:25:50.546Z,5.73
2023-03-08T07:28:16.873Z,5.40
2023-03-08T07:30:48.606Z,5.37
2023-03-08T07:33:15.543Z,6.77
2023-03-08T07:35:41.942Z,6.47
2023-03-08T07:38:08.473Z,5.77
2023-03-08T07:40:34.912Z,6.50
2023-03-08T07:43:01.284Z,6.37
2023-03-08T07:45:27.730Z,6.63
2023-03-08T07:47:54.676Z,6.50
2023-03-08T07:50:22.027Z,6.03
2023-03-08T07:52:49.077Z,6.43
2023-03-08T07:55:16.000Z,6.23
2023-03-08T07:57:42.426Z,6.67
2023-03-08T08:00:10.899Z,7.00
2023-03-08T08:02:37.344Z,6.90
2023-03-08T08:05:04.640Z,7.57
2023-03-08T08:07:31.173Z,6.53
2023-03-08T08:09:57.564Z,6.27
2023-03-08T08:12:23.924Z,6.20
2023-03-08T08:14:52.378Z,6.77
2023-03-08T08:17:19.600Z,6.43
2023-03-08T08:19:46.456Z,6.77
2023-03-08T08:22:12.806Z,6.90
2023-03-08T08:24:39.288Z,6.97
2023-03-08T08:27:06.056Z,7.37
2023-03-08T08:29:32.825Z,7.53
2023-03-08T08:31:59.212Z,7.10
2023-03-08T08:34:25.847Z,7.03
2023-03-08T08:36:52.184Z,6.70
2023-03-08T08:39:18.512Z,7.97
2023-03-08T08:41:44.863Z,7.77
2023-03-08T08:44:11.206Z,7.33
2023-03-08T08:46:38.189Z,8.23
2023-03-08T08:49:07.525Z,8.20
2023-03-08T08:51:33.965Z,7.50
2023-03-08T08:54:00.613Z,8.63
2023-03-08T08:56:28.881Z,9.53
2023-03-08T08:59:00.943Z,8.33
2023-03-08T09:01:30.870Z,8.63
2023-03-08T09:03:57.842Z,7.80
2023-03-08T09:06:25.778Z,7.70
2023-03-08T09:08:55.185Z,8.73
2023-03-08T09:11:22.974Z,8.30
2023-03-08T09:13:49.582Z,7.97
2023-03-08T09:16:22.875Z,8.13
2023-03-08T09:18:50.028Z,7.90
2023-03-08T09:21:16.863Z,8.13
2023-03-08T09:23:43.600Z,9.27
2023-03-08T09:26:10.912Z,8.10
2023-03-08T09:28:37.478Z,8.27
2023-03-08T09:31:14.791Z,7.43
2023-03-08T09:33:44.151Z,9.37
2023-03-08T09:36:11.048Z,8.93
2023-03-08T09:38:37.749Z,8.63
2023-03-08T09:41:19.302Z,9.47
2023-03-08T09:43:59.936Z,8.30
2023-03-08T09:46:35.996Z,8.57
2023-03-08T09:49:07.087Z,8.90
2023-03-08T09:51:38.400Z,8.73
2023-03-08T09:54:13.981Z,10.07
2023-03-08T09:56:48.071Z,9.23
2023-03-08T09:59:44.560Z,9.77
2023-03-08T10:02:32.683Z,8.57
2023-03-08T10:05:13.756Z,9.10
2023-03-08T10:07:56.644Z,9.20
2023-03-08T10:10:47.071Z,8.63
2023-03-08T10:13:25.572Z,9.27
2023-03-08T10:15:57.720Z,10.07
2023-03-08T10:18:31.771Z,9.13
2023-03-08T10:21:00.963Z,10.20
2023-03-08T10:23:32.392Z,10.63
2023-03-08T10:26:00.316Z,10.17
2023-03-08T10:28:27.776Z,9.40
2023-03-08T10:30:59.950Z,9.90
2023-03-08T10:33:32.831Z,9.03
2023-03-08T10:36:17.986Z,8.97
2023-03-08T10:38:55.212Z,9.13
2023-03-08T10:41:21.890Z,10.87
2023-03-08T10:43:53.925Z,8.97
2023-03-08T10:46:22.896Z,8.27
2023-03-08T10:48:49.515Z,9.23
2023-03-08T10:51:21.504Z,9.33
2023-03-08T10:53:56.168Z,7.97
2023-03-08T10:56:31.194Z,8.70
2023-03-08T10:58:58.492Z,9.20
2023-03-08T11:01:31.090Z,8.90
2023-03-08T11:04:16.238Z,9.03
2023-03-08T11:06:43.189Z,8.67
2023-03-08T11:09:29.727Z,9.07
2023-03-08T11:12:00.579Z,10.87
2023-03-08T11:14:28.434Z,8.53
2023-03-08T11:17:17.982Z,8.90
2023-03-08T11:20:11.143Z,11.20
2023-03-08T11:22:59.015Z,8.50
2023-03-08T11:25:57.301Z,8.97
2023-03-08T11:28:48.597Z,9.13
2023-03-08T11:31:18.079Z,8.53
2023-03-08T11:34:21.574Z,9.43
2023-03-08T11:36:56.749Z,8.97
2023-03-08T11:39:28.941Z,9.40
2023-03-08T11:42:16.513Z,9.47
2023-03-08T11:45:19.419Z,8.87
2023-03-08T11:47:57.372Z,8.20
2023-03-08T11:50:28.673Z,9.00
2023-03-08T11:53:13.334Z,9.93
2023-03-08T11:55:52.113Z,9.53
2023-03-08T11:58:28.566Z,10.77
2023-03-08T12:01:01.269Z,10.57
2023-03-08T12:03:36.074Z,9.67
2023-03-08T12:06:29.093Z,9.13
2023-03-08T12:09:08.750Z,9.50
2023-03-08T12:11:41.780Z,9.07
2023-03-08T12:14:22.926Z,12.10
2023-03-08T12:17:02.495Z,9.20
2023-03-08T12:19:42.034Z,9.13
2023-03-08T12:22:39.183Z,9.50
2023-03-08T12:25:15.710Z,10.67
2023-03-08T12:28:11.805Z,9.13
2023-03-08T12:31:24.869Z,9.40
2023-03-08T12:33:54.069Z,8.03
2023-03-08T12:36:24.308Z,7.97
2023-03-08T12:38:56.593Z,8.53
2023-03-08T12:41:28.990Z,8.27
2023-03-08T12:44:22.609Z,8.93
2023-03-08T12:47:02.452Z,8.23
2023-03-08T12:49:33.916Z,7.67
2023-03-08T12:52:06.812Z,8.50
2023-03-08T12:54:35.394Z,8.63
2023-03-08T12:57:13.905Z,8.17
2023-03-08T12:59:41.215Z,8.67
2023-03-08T13:02:30.971Z,8.50
2023-03-08T13:05:15.656Z,8.03
2023-03-08T13:08:08.857Z,7.50
2023-03-08T13:10:52.195Z,7.37
2023-03-08T13:13:38.060Z,6.93
2023-03-08T13:16:19.308Z,8.10
2023-03-08T13:18:48.601Z,8.13
2023-03-08T13:21:14.976Z,8.23
2023-03-08T13:23:58.443Z,7.80
2023-03-08T13:26:54.357Z,7.93
2023-03-08T13:29:21.417Z,10.73
2023-03-08T13:31:48.469Z,8.90
2023-03-08T13:34:23.893Z,7.63
2023-03-08T13:36:50.271Z,8.57
2023-03-08T13:39:25.294Z,9.33
2023-03-08T13:41:52.180Z,7.47
2023-03-08T13:44:23.119Z,7.60
2023-03-08T13:46:54.091Z,8.17
2023-03-08T13:49:25.686Z,8.33
2023-03-08T13:51:55.619Z,9.60
2023-03-08T13:54:29.629Z,9.03
2023-03-08T13:56:59.872Z,7.90
2023-03-08T13:59:27.169Z,8.27
2023-03-08T14:01:54.458Z,10.67
2023-03-08T14:04:24.073Z,8.90
2023-03-08T14:07:19.980Z,9.47
2023-03-08T14:09:46.339Z,9.73
2023-03-08T14:12:16.924Z,14.10
2023-03-08T14:14:46.640Z,10.07
2023-03-08T14:17:24.959Z,8.53
2023-03-08T14:20:16.683Z,7.47
2023-03-08T14:22:47.659Z,7.60
2023-03-08T14:25:40.348Z,7.50
2023-03-08T14:28:39.030Z,9.63
2023-03-08T14:31:27.405Z,9.33
2023-03-08T14:33:57.170Z,7.73
2023-03-08T14:36:24.148Z,8.17
2023-03-08T14:38:50.774Z,7.90
2023-03-08T14:41:17.391Z,7.77
2023-03-08T14:43:49.407Z,8.20
2023-03-08T14:46:20.326Z,8.10
2023-03-08T14:48:57.356Z,7.67
2023-03-08T14:51:42.658Z,7.53
2023-03-08T14:54:32.766Z,7.17
2023-03-08T14:57:15.235Z,12.37
2023-03-08T14:59:42.666Z,7.20
2023-03-08T15:02:13.681Z,10.97
2023-03-08T15:04:40.907Z,8.50
2023-03-08T15:07:08.461Z,7.97
2023-03-08T15:09:34.994Z,7.17
2023-03-08T15:12:01.714Z,6.80
2023-03-08T15:14:30.506Z,7.90
2023-03-08T15:16:58.130Z,6.47
2023-03-08T15:19:24.829Z,8.90
2023-03-08T15:21:51.464Z,7.27
2023-03-08T15:24:18.993Z,7.13
2023-03-08T15:26:45.913Z,8.10
2023-03-08T15:29:26.656Z,8.10
2023-03-08T15:31:53.491Z,8.67
2023-03-08T15:34:20.171Z,8.57
2023-03-08T15:36:48.245Z,8.43
2023-03-08T15:39:14.847Z,8.57
2023-03-08T15:41:41.272Z,9.83
2023-03-08T15:44:08.065Z,8.17
2023-03-08T15:46:34.660Z,8.13
2023-03-08T15:49:01.013Z,7.50
2023-03-08T15:51:35.864Z,9.87
2023-03-08T15:54:04.239Z,8.87
2023-03-08T15:56:30.658Z,9.23
2023-03-08T15:58:57.131Z,8.43
2023-03-08T16:01:26.182Z,8.93
2023-03-08T16:03:54.194Z,9.40
2023-03-08T16:06:21.123Z,10.77
2023-03-08T16:08:47.508Z,7.80
2023-03-08T16:11:17.361Z,7.93
2023-03-08T16:13:44.075Z,8.07
2023-03-08T16:16:10.868Z,7.67
2023-03-08T16:18:40.259Z,9.53
2023-03-08T16:21:08.987Z,8.13
2023-03-08T16:23:36.214Z,9.40
2023-03-08T16:26:15.103Z,8.00
2023-03-08T16:28:43.545Z,7.70
2023-03-08T16:31:09.935Z,8.20
2023-03-08T16:33:36.659Z,7.87
2023-03-08T16:36:03.830Z,8.03
2023-03-08T16:38:30.302Z,7.13
2023-03-08T16:41:11.493Z,6.90
2023-03-08T16:43:46.267Z,7.93
2023-03-08T16:46:16.098Z,11.60
2023-03-08T16:48:42.656Z,10.20
2023-03-08T16:51:13.832Z,8.83
2023-03-08T16:53:40.353Z,8.40
2023-03-08T16:56:07.069Z,11.90
2023-03-08T16:58:33.408Z,9.30
2023-03-08T17:00:59.800Z,10.43
2023-03-08T17:03:26.361Z,8.83
2023-03-08T17:05:52.838Z,12.37
2023-03-08T17:08:19.372Z,10.97
2023-03-08T17:10:45.775Z,10.80
2023-03-08T17:13:12.550Z,9.60
2023-03-08T17:15:44.207Z,9.90
2023-03-08T17:18:10.850Z,11.13
2023-03-08T17:20:41.817Z,10.47
2023-03-08T17:23:10.400Z,13.23
2023-03-08T17:25:40.996Z,11.83
2023-03-08T17:28:08.788Z,12.93
2023-03-08T17:30:35.861Z,13.97
2023-03-08T17:33:02.368Z,10.53
2023-03-08T17:35:28.848Z,13.83
2023-03-08T17:37:55.280Z,11.63
2023-03-08T17:40:21.948Z,13.03
2023-03-08T17:42:48.362Z,12.40
2023-03-08T17:45:16.048Z,11.17
2023-03-08T17:47:42.500Z,11.00
2023-03-08T17:50:11.282Z,11.90
2023-03-08T17:52:37.612Z,12.40
2023-03-08T17:55:04.292Z,15.33
2023-03-08T17:57:30.985Z,11.87
2023-03-08T17:59:57.400Z,10.53
2023-03-08T18:02:24.263Z,11.43
2023-03-08T18:04:51.101Z,13.77
2023-03-08T18:07:18.807Z,14.67
2023-03-08T18:09:45.944Z,11.20
2023-03-08T18:12:12.479Z,12.07
2023-03-08T18:14:40.128Z,12.47
2023-03-08T18:17:07.777Z,24.60
2023-03-08T18:19:34.264Z,22.27
2023-03-08T18:22:00.746Z,19.37
2023-03-08T18:24:27.636Z,17.57
2023-03-08T18:26:54.111Z,13.40
2023-03-08T18:29:20.492Z,15.97
2023-03-08T18:31:47.060Z,13.53
2023-03-08T18:34:13.419Z,12.93
2023-03-08T18:36:40.801Z,12.33
2023-03-08T18:39:12.030Z,14.30
2023-03-08T18:41:38.903Z,13.73
2023-03-08T18:44:05.911Z,13.37
2023-03-08T18:46:33.566Z,15.17
2023-03-08T18:49:03.331Z,14.17
2023-03-08T18:51:31.734Z,14.00
2023-03-08T18:53:58.876Z,14.20
2023-03-08T18:56:26.126Z,14.73
2023-03-08T18:58:58.392Z,13.73
2023-03-08T19:01:25.322Z,15.53
2023-03-08T19:03:52.087Z,15.97
2023-03-08T19:06:18.523Z,20.80
2023-03-08T19:08:44.890Z,15.97
2023-03-08T19:11:13.493Z,17.57
2023-03-08T19:13:41.122Z,15.80
2023-03-08T19:16:21.057Z,14.90
2023-03-08T19:18:48.781Z,16.20
2023-03-08T19:21:17.620Z,15.77
2023-03-08T19:23:44.277Z,16.20
2023-03-08T19:26:46.120Z,17.37
2023-03-08T19:29:30.339Z,15.37
2023-03-08T19:32:05.440Z,15.90
2023-03-08T19:34:34.616Z,15.33
2023-03-08T19:37:01.621Z,15.53
2023-03-08T19:39:33.393Z,15.70
2023-03-08T19:42:12.350Z,14.83
2023-03-08T19:44:38.753Z,15.20
2023-03-08T19:47:05.413Z,15.47
2023-03-08T19:49:35.560Z,15.03
2023-03-08T19:52:05.202Z,14.20
2023-03-08T19:54:31.772Z,14.77
2023-03-08T19:56:59.014Z,14.30
2023-03-08T19:59:25.789Z,15.73
2023-03-08T20:01:54.471Z,15.40
2023-03-08T20:04:21.910Z,15.70
2023-03-08T20:06:49.380Z,15.57
2023-03-08T20:09:21.294Z,15.87
2023-03-08T20:11:50.500Z,16.00
2023-03-08T20:14:16.869Z,17.10
2023-03-08T20:16:43.268Z,16.10
2023-03-08T20:19:09.694Z,16.23
2023-03-08T20:21:37.706Z,17.30
2023-03-08T20:24:04.162Z,17.17
2023-03-08T20:26:33.065Z,18.30
2023-03-08T20:29:00.450Z,20.00
2023-03-08T20:31:29.106Z,19.20
2023-03-08T20:33:55.797Z,19.63
2023-03-08T20:36:23.631Z,21.13
2023-03-08T20:38:50.021Z,21.93
2023-03-08T20:41:18.992Z,22.23
2023-03-08T20:43:47.180Z,23.53
2023-03-08T20:46:16.306Z,21.53
2023-03-08T20:48:44.791Z,22.67
2023-03-08T20:51:14.201Z,22.70
2023-03-08T20:53:41.980Z,23.33
2023-03-08T20:56:11.683Z,22.17
2023-03-08T20:58:38.469Z,24.70
2023-03-08T21:01:17.858Z,22.47
2023-03-08T21:03:45.624Z,21.33
2023-03-08T21:06:14.747Z,21.23
2023-03-08T21:08:41.223Z,20.83
2023-03-08T21:11:07.910Z,22.97
2023-03-08T21:13:34.331Z,24.67
2023-03-08T21:16:06.144Z,23.40
2023-03-08T21:18:32.659Z,22.90
2023-03-08T21:20:59.582Z,22.37
2023-03-08T21:23:26.419Z,22.60
2023-03-08T21:25:53.630Z,22.03
2023-03-08T21:28:21.587Z,23.27
2023-03-08T21:30:48.735Z,21.83
2023-03-08T21:33:15.396Z,22.23
2023-03-08T21:35:42.708Z,24.63
2023-03-08T21:38:09.450Z,26.37
2023-03-08T21:40:41.882Z,24.47
2023-03-08T21:43:08.858Z,23.97
2023-03-08T21:45:42.515Z,24.80
2023-03-08T21:48:09.771Z,26.50
2023-03-08T21:50:40.262Z,25.63
2023-03-08T21:53:08.213Z,24.13
2023-03-08T21:55:38.267Z,27.23
2023-03-08T21:58:05.687Z,29.23
2023-03-08T22:00:32.352Z,23.13
2023-03-08T22:02:59.279Z,25.60
2023-03-08T22:05:25.907Z,26.23
2023-03-08T22:07:52.389Z,26.30
2023-03-08T22:10:20.275Z,26.83
2023-03-08T22:12:47.394Z,23.63
2023-03-08T22:15:15.898Z,24.10
2023-03-08T22:17:43.094Z,29.97
2023-03-08T22:20:11.042Z,30.47
2023-03-08T22:22:38.489Z,27.87
2023-03-08T22:25:06.540Z,27.43
2023-03-08T22:27:33.389Z,26.93
2023-03-08T22:29:59.916Z,25.47
2023-03-08T22:32:26.644Z,26.10
2023-03-08T22:34:53.059Z,29.03
2023-03-08T22:37:19.489Z,23.23
2023-03-08T22:39:45.965Z,25.77
2023-03-08T22:42:12.410Z,24.20
2023-03-08T22:44:38.813Z,29.13
2023-03-08T22:47:05.461Z,23.50
2023-03-08T22:49:31.903Z,26.80
2023-03-08T22:51:58.265Z,28.53
2023-03-08T22:54:24.850Z,23.97
2023-03-08T22:56:51.358Z,26.10
2023-03-08T22:59:17.773Z,25.90
2023-03-08T23:01:44.280Z,23.00
2023-03-08T23:04:13.255Z,25.57
2023-03-08T23:06:40.003Z,23.17
2023-03-08T23:09:10.078Z,25.10
2023-03-08T23:11:37.370Z,28.13
2023-03-08T23:14:04.486Z,31.10
2023-03-08T23:16:31.128Z,29.20
2023-03-08T23:18:57.786Z,30.33
2023-03-08T23:21:26.216Z,26.17
2023-03-08T23:23:52.710Z,27.47
2023-03-08T23:26:23.839Z,28.13
2023-03-08T23:28:50.484Z,27.10
2023-03-08T23:31:20.421Z,28.43
2023-03-08T23:33:47.517Z,25.07
2023-03-08T23:36:16.497Z,26.80
2023-03-08T23:38:43.910Z,26.07
2023-03-08T23:41:11.975Z,28.37
2023-03-08T23:43:39.361Z,25.07
2023-03-08T23:46:14.611Z,28.07
2023-03-08T23:48:41.768Z,25.27
2023-03-08T23:51:11.902Z,27.73
2023-03-08T23:53:38.703Z,28.20
2023-03-08T23:56:05.872Z,28.57
2023-03-08T23:58:32.887Z,27.10
